Time;durP1;ratioP1;P1;durP2;ratioP2;P2;SDS_P1;SDS_P2;PMS_P1;PMS_P2;Temp;Humidity;BMP_temperature;BMP_pressure;BME280_temperature;BME280_humidity;BME280_pressure;Samples;Min_cycle;Max_cycle;Signal;HPM_P1;HPM_P2
2022/09/18 00:01:09;;;;;;;;;;;11.20;99.90;;;;;;6224924;22;19915;-76
2022/09/18 00:03:37;;;;;;;;;;;11.20;99.90;;;;;;6250124;22;20338;-79
2022/09/18 00:06:19;;;;;;;;;;;11.10;99.90;;;;;;6250186;22;19915;-79
2022/09/18 00:08:45;;;;;;;;;;;11.10;99.90;;;;;;6225641;22;19915;-79
2022/09/18 00:11:15;;;;;;;;;;;11.20;99.90;;;;;;6250771;22;19947;-78
2022/09/18 00:13:41;;;;;;;;;;;11.10;99.90;;;;;;6250836;22;19954;-78
2022/09/18 00:16:10;;;;;;;;;;;11.10;99.90;;;;;;6250827;22;20242;-78
2022/09/18 00:18:38;;;;;;;;;;;11.20;99.90;;;;;;6225068;22;19966;-79
2022/09/18 00:21:07;;;;;;;;;;;11.20;99.90;;;;;;6250549;22;19919;-79
2022/09/18 00:23:33;;;;;;;;;;;11.20;99.90;;;;;;6250575;22;19973;-79
2022/09/18 00:26:02;;;;;;;;;;;11.20;99.90;;;;;;6250746;22;19950;-78
2022/09/18 00:28:30;;;;;;;;;;;11.60;99.90;;;;;;6250484;22;19922;-77
2022/09/18 00:31:04;;;;;;;;;;;11.10;99.90;;;;;;6250898;22;20227;-78
2022/09/18 00:33:30;;;;;;;;;;;11.30;99.90;;;;;;6250398;22;19915;-78
2022/09/18 00:35:59;;;;;;;;;;;11.20;99.90;;;;;;6224423;22;20357;-77
2022/09/18 00:38:27;;;;;;;;;;;11.30;99.90;;;;;;6249984;22;20037;-76
2022/09/18 00:40:52;;;;;;;;;;;11.40;99.90;;;;;;6224468;22;19915;-79
2022/09/18 00:43:23;;;;;;;;;;;11.30;99.90;;;;;;6249588;22;19990;-79
2022/09/18 00:46:00;;;;;;;;;;;11.30;99.90;;;;;;6249640;22;20291;-77
2022/09/18 00:48:28;;;;;;;;;;;11.30;99.90;;;;;;6249871;22;19994;-80
2022/09/18 00:50:59;;;;;;;;;;;11.30;99.90;;;;;;6249321;22;20281;-77
2022/09/18 00:53:26;;;;;;;;;;;11.30;99.90;;;;;;6275253;22;20345;-77
2022/09/18 00:55:51;;;;;;;;;;;11.30;99.90;;;;;;6249644;22;19926;-78
2022/09/18 00:58:17;;;;;;;;;;;11.30;99.90;;;;;;6250612;22;19915;-79
2022/09/18 01:00:43;;;;;;;;;;;11.20;99.90;;;;;;6250153;22;19922;-78
2022/09/18 01:03:14;;;;;;;;;;;11.20;99.90;;;;;;6275729;22;20018;-78
2022/09/18 01:05:43;;;;;;;;;;;11.50;99.90;;;;;;6249557;22;20246;-77
2022/09/18 01:08:28;;;;;;;;;;;11.20;99.90;;;;;;6249791;22;19921;-77
2022/09/18 01:10:56;;;;;;;;;;;10.90;99.90;;;;;;6249211;22;19958;-79
2022/09/18 01:13:31;;;;;;;;;;;11.10;99.90;;;;;;6249226;22;19994;-79
2022/09/18 01:16:03;;;;;;;;;;;11.10;99.90;;;;;;6250046;22;20334;-79
2022/09/18 01:18:32;;;;;;;;;;;11.20;99.90;;;;;;6251965;22;19922;-79
2022/09/18 01:21:01;;;;;;;;;;;11.20;99.90;;;;;;6257935;22;19915;-80
2022/09/18 01:23:42;;;;;;;;;;;11.20;99.90;;;;;;6250349;22;19919;-77
2022/09/18 01:26:17;;;;;;;;;;;11.20;99.90;;;;;;6272503;22;19923;-78
2022/09/18 01:28:48;;;;;;;;;;;11.20;99.90;;;;;;6278462;22;19919;-78
2022/09/18 01:31:19;;;;;;;;;;;11.20;99.90;;;;;;6278414;22;19926;-77
2022/09/18 01:34:00;;;;;;;;;;;11.20;99.90;;;;;;6278457;22;19947;-78
2022/09/18 01:36:31;;;;;;;;;;;11.10;99.90;;;;;;6249338;22;19969;-80
2022/09/18 01:39:04;;;;;;;;;;;11.10;99.90;;;;;;6249588;22;19915;-79
2022/09/18 01:41:30;;;;;;;;;;;11.20;99.90;;;;;;6249218;22;19926;-78
2022/09/18 01:44:05;;;;;;;;;;;11.30;99.90;;;;;;6224165;22;20329;-80
2022/09/18 01:46:32;;;;;;;;;;;11.30;99.90;;;;;;6249865;22;20036;-79
2022/09/18 01:49:01;;;;;;;;;;;11.50;99.90;;;;;;6249540;22;19916;-79
2022/09/18 01:51:30;;;;;;;;;;;11.20;99.90;;;;;;6248904;22;19926;-77
2022/09/18 01:53:59;;;;;;;;;;;11.20;99.90;;;;;;6274786;22;19990;-79
2022/09/18 01:56:36;;;;;;;;;;;11.20;99.90;;;;;;6249119;22;19915;-76
2022/09/18 01:59:08;;;;;;;;;;;11.50;99.90;;;;;;6248512;22;19915;-79
2022/09/18 02:01:37;;;;;;;;;;;11.10;99.90;;;;;;6249201;22;20349;-78
2022/09/18 02:04:07;;;;;;;;;;;11.10;99.90;;;;;;6249261;22;19915;-78
2022/09/18 02:06:49;;;;;;;;;;;11.00;99.90;;;;;;6248959;22;19919;-77
2022/09/18 02:09:15;;;;;;;;;;;11.00;99.90;;;;;;6249428;22;19915;-78
2022/09/18 02:11:45;;;;;;;;;;;11.00;99.90;;;;;;6248540;22;19915;-78
2022/09/18 02:14:17;;;;;;;;;;;11.00;99.90;;;;;;6248807;22;20391;-77
2022/09/18 02:16:44;;;;;;;;;;;11.10;99.90;;;;;;6223639;22;19951;-78
2022/09/18 02:19:17;;;;;;;;;;;11.10;99.90;;;;;;6249118;22;19950;-76
2022/09/18 02:21:51;;;;;;;;;;;11.20;99.90;;;;;;6248915;22;19933;-79
2022/09/18 02:24:24;;;;;;;;;;;11.20;99.90;;;;;;6247688;22;19926;-78
2022/09/18 02:26:53;;;;;;;;;;;11.10;99.90;;;;;;6248607;22;19950;-79
2022/09/18 02:29:20;;;;;;;;;;;11.10;99.90;;;;;;6248165;22;20003;-77
2022/09/18 02:31:55;;;;;;;;;;;11.00;99.90;;;;;;6248560;22;19991;-77
2022/09/18 02:34:23;;;;;;;;;;;11.20;99.90;;;;;;6248657;22;19915;-80
2022/09/18 02:37:01;;;;;;;;;;;11.20;99.90;;;;;;6249111;22;19992;-79
2022/09/18 02:39:53;;;;;;;;;;;11.30;99.90;;;;;;6250402;22;19922;-77
2022/09/18 02:42:23;;;;;;;;;;;11.20;99.90;;;;;;6250712;22;19969;-80
2022/09/18 02:45:09;;;;;;;;;;;11.30;99.90;;;;;;6250964;22;20285;-79
2022/09/18 02:48:01;;;;;;;;;;;11.20;99.90;;;;;;6251061;22;20344;-79
2022/09/18 02:50:30;;;;;;;;;;;11.20;99.90;;;;;;6250524;22;19926;-79
2022/09/18 02:53:02;;;;;;;;;;;11.20;99.90;;;;;;6250499;22;19942;-78
2022/09/18 02:55:32;;;;;;;;;;;11.10;99.90;;;;;;6251439;22;19915;-78
2022/09/18 02:58:29;;;;;;;;;;;11.10;99.90;;;;;;6252067;22;20349;-78
2022/09/18 03:01:01;;;;;;;;;;;11.10;99.90;;;;;;6221273;22;20288;-78
2022/09/18 03:03:43;;;;;;;;;;;11.10;99.90;;;;;;6226085;22;20238;-78
2022/09/18 03:06:13;;;;;;;;;;;11.10;99.90;;;;;;6251489;22;19960;-78
2022/09/18 03:08:45;;;;;;;;;;;11.00;99.90;;;;;;6251548;22;20341;-77
2022/09/18 03:11:22;;;;;;;;;;;11.00;99.90;;;;;;6252045;22;19934;-77
2022/09/18 03:13:51;;;;;;;;;;;11.10;99.90;;;;;;6227161;22;19922;-79
2022/09/18 03:16:25;;;;;;;;;;;11.00;99.90;;;;;;6249654;22;19919;-79
2022/09/18 03:18:58;;;;;;;;;;;11.00;99.90;;;;;;6251747;22;19995;-77
2022/09/18 03:21:30;;;;;;;;;;;11.00;99.90;;;;;;6276845;22;20215;-80
2022/09/18 03:23:59;;;;;;;;;;;10.80;99.90;;;;;;6251280;22;19919;-77
2022/09/18 03:26:32;;;;;;;;;;;11.00;99.90;;;;;;6250259;22;19915;-79
2022/09/18 03:29:13;;;;;;;;;;;11.20;99.90;;;;;;6250304;22;20246;-78
2022/09/18 03:31:42;;;;;;;;;;;11.00;99.90;;;;;;6250478;22;20321;-79
2022/09/18 03:34:13;;;;;;;;;;;11.00;99.90;;;;;;6249563;22;19915;-77
2022/09/18 03:36:46;;;;;;;;;;;11.00;99.90;;;;;;6250507;22;19915;-77
2022/09/18 03:39:20;;;;;;;;;;;11.10;99.90;;;;;;6249972;22;19919;-78
2022/09/18 03:41:54;;;;;;;;;;;11.10;99.90;;;;;;6249990;22;19919;-77
2022/09/18 03:44:23;;;;;;;;;;;11.50;99.90;;;;;;6225117;22;19965;-79
2022/09/18 03:46:59;;;;;;;;;;;11.10;99.90;;;;;;6249696;22;19915;-78
2022/09/18 03:49:25;;;;;;;;;;;11.10;99.90;;;;;;6249580;22;19926;-78
2022/09/18 03:51:53;;;;;;;;;;;11.10;99.90;;;;;;6248790;22;20246;-77
2022/09/18 03:54:22;;;;;;;;;;;11.10;99.90;;;;;;6249792;22;19994;-78
2022/09/18 03:56:47;;;;;;;;;;;11.20;99.90;;;;;;6249162;22;20298;-78
2022/09/18 03:59:15;;;;;;;;;;;11.20;99.90;;;;;;6250192;22;20322;-79
2022/09/18 04:01:44;;;;;;;;;;;11.10;99.90;;;;;;6250231;22;19926;-79
2022/09/18 04:04:12;;;;;;;;;;;11.00;99.90;;;;;;6249215;22;19915;-79
2022/09/18 04:06:37;;;;;;;;;;;11.20;99.90;;;;;;6275628;22;19915;-77
2022/09/18 04:09:06;;;;;;;;;;;10.80;99.90;;;;;;6249691;22;19950;-76
2022/09/18 04:11:37;;;;;;;;;;;10.70;99.90;;;;;;6249344;22;20242;-76
2022/09/18 04:14:16;;;;;;;;;;;10.70;99.90;;;;;;6249265;22;19915;-78
2022/09/18 04:16:50;;;;;;;;;;;10.50;99.90;;;;;;6250157;22;19941;-77
2022/09/18 04:19:18;;;;;;;;;;;10.80;99.90;;;;;;6249556;22;19926;-79
2022/09/18 04:21:51;;;;;;;;;;;10.60;99.90;;;;;;6249386;22;19923;-77
2022/09/18 04:24:20;;;;;;;;;;;10.60;99.90;;;;;;6249395;22;19915;-77
2022/09/18 04:26:59;;;;;;;;;;;10.70;99.90;;;;;;6258922;22;19947;-78
2022/09/18 04:29:40;;;;;;;;;;;10.70;99.90;;;;;;6225134;22;21900;-77
2022/09/18 04:32:15;;;;;;;;;;;10.60;99.90;;;;;;6249686;22;20288;-80
2022/09/18 04:34:42;;;;;;;;;;;10.70;99.90;;;;;;6249434;22;20356;-77
2022/09/18 04:37:07;;;;;;;;;;;10.80;99.90;;;;;;6250051;22;20284;-80
2022/09/18 04:39:34;;;;;;;;;;;10.80;99.90;;;;;;6249785;22;19968;-81
2022/09/18 04:42:03;;;;;;;;;;;10.80;99.90;;;;;;6249465;22;19919;-81
2022/09/18 04:44:29;;;;;;;;;;;10.90;99.90;;;;;;6249627;22;20322;-80
2022/09/18 04:46:55;;;;;;;;;;;10.90;99.90;;;;;;6249944;22;19922;-81
2022/09/18 04:49:20;;;;;;;;;;;10.90;99.90;;;;;;6249379;22;19922;-80
2022/09/18 04:51:46;;;;;;;;;;;10.90;99.90;;;;;;6249283;22;19919;-80
2022/09/18 04:54:12;;;;;;;;;;;10.90;99.90;;;;;;6249596;22;19915;-81
2022/09/18 04:56:39;;;;;;;;;;;10.90;99.90;;;;;;6249490;22;20211;-81
2022/09/18 04:59:08;;;;;;;;;;;11.30;99.90;;;;;;6248768;22;19915;-80
2022/09/18 05:01:34;;;;;;;;;;;10.90;99.90;;;;;;6222669;22;19946;-80
2022/09/18 05:04:00;;;;;;;;;;;10.90;99.90;;;;;;6248268;22;20322;-81
2022/09/18 05:06:26;;;;;;;;;;;10.90;99.90;;;;;;6248634;22;20245;-80
2022/09/18 05:08:51;;;;;;;;;;;11.00;99.90;;;;;;6247948;22;19922;-80
2022/09/18 05:11:20;;;;;;;;;;;11.00;99.90;;;;;;6247870;22;19915;-80
2022/09/18 05:13:49;;;;;;;;;;;11.00;99.90;;;;;;6248785;22;19968;-80
2022/09/18 05:16:17;;;;;;;;;;;11.00;99.90;;;;;;6249494;22;20223;-80
2022/09/18 05:18:43;;;;;;;;;;;11.00;99.90;;;;;;6249396;22;19915;-79
2022/09/18 05:21:09;;;;;;;;;;;10.90;99.90;;;;;;6249359;22;20334;-81
2022/09/18 05:23:37;;;;;;;;;;;10.70;99.90;;;;;;6224105;22;19923;-80
2022/09/18 05:26:03;;;;;;;;;;;10.90;99.90;;;;;;6249586;22;19915;-81
2022/09/18 05:28:29;;;;;;;;;;;10.80;99.90;;;;;;6249492;22;20318;-80
2022/09/18 05:31:00;;;;;;;;;;;10.80;99.90;;;;;;6249293;22;19916;-80
2022/09/18 05:33:26;;;;;;;;;;;10.80;99.90;;;;;;6249319;22;19915;-81
2022/09/18 05:35:53;;;;;;;;;;;10.80;99.90;;;;;;6249272;22;19926;-81
2022/09/18 05:38:19;;;;;;;;;;;11.00;99.90;;;;;;6224352;22;19915;-80
2022/09/18 05:40:46;;;;;;;;;;;11.00;99.90;;;;;;6249292;22;19915;-81
2022/09/18 05:43:14;;;;;;;;;;;11.00;99.90;;;;;;6249412;22;19919;-81
2022/09/18 05:45:42;;;;;;;;;;;10.90;99.90;;;;;;6249295;22;19919;-80
2022/09/18 05:48:08;;;;;;;;;;;10.90;99.90;;;;;;6249374;22;19922;-80
2022/09/18 05:50:37;;;;;;;;;;;10.90;99.90;;;;;;6244000;23;19994;-81
2022/09/18 05:53:11;;;;;;;;;;;10.90;99.90;;;;;;6194063;23;19926;-81
2022/09/18 05:55:40;;;;;;;;;;;10.90;99.90;;;;;;6194243;23;20247;-80
2022/09/18 05:58:07;;;;;;;;;;;10.90;99.90;;;;;;6193927;23;19986;-82
2022/09/18 06:00:34;;;;;;;;;;;10.80;99.90;;;;;;6193909;23;20250;-80
2022/09/18 06:03:00;;;;;;;;;;;10.90;99.90;;;;;;6193868;23;19920;-80
2022/09/18 06:05:27;;;;;;;;;;;10.90;99.90;;;;;;6193966;23;19916;-81
2022/09/18 06:07:57;;;;;;;;;;;10.90;99.90;;;;;;6193710;23;19938;-80
2022/09/18 06:10:23;;;;;;;;;;;10.90;99.90;;;;;;6193794;23;19962;-81
2022/09/18 06:12:49;;;;;;;;;;;10.90;99.90;;;;;;6193858;22;19923;-81
2022/09/18 06:15:15;;;;;;;;;;;11.00;99.90;;;;;;6220433;23;19916;-80
2022/09/18 06:17:41;;;;;;;;;;;11.00;99.90;;;;;;6195743;23;20242;-80
2022/09/18 06:20:08;;;;;;;;;;;10.90;99.90;;;;;;6220899;23;19916;-80
2022/09/18 06:22:37;;;;;;;;;;;10.70;99.90;;;;;;6195643;22;19920;-80
2022/09/18 06:25:03;;;;;;;;;;;10.50;99.90;;;;;;6195887;23;19970;-80
2022/09/18 06:27:29;;;;;;;;;;;10.80;99.90;;;;;;6195401;23;20664;-80
2022/09/18 06:29:55;;;;;;;;;;;10.80;99.90;;;;;;6219932;23;19970;-80
2022/09/18 06:32:20;;;;;;;;;;;10.80;99.90;;;;;;6220053;23;19915;-80
2022/09/18 06:34:46;;;;;;;;;;;10.80;99.90;;;;;;6220102;23;19916;-79
2022/09/18 06:37:13;;;;;;;;;;;10.80;99.90;;;;;;6195860;23;19916;-80
2022/09/18 06:39:39;;;;;;;;;;;10.80;99.90;;;;;;6195918;23;19939;-80
2022/09/18 06:42:05;;;;;;;;;;;10.80;99.90;;;;;;6223951;23;19919;-80
2022/09/18 06:44:31;;;;;;;;;;;10.80;99.90;;;;;;6224054;23;19938;-80
2022/09/18 06:46:57;;;;;;;;;;;10.80;99.90;;;;;;6221876;23;19920;-80
2022/09/18 06:49:22;;;;;;;;;;;10.80;99.90;;;;;;6222241;23;19915;-79
2022/09/18 06:51:48;;;;;;;;;;;10.80;99.90;;;;;;6229379;22;19911;-79
2022/09/18 06:54:15;;;;;;;;;;;10.70;99.90;;;;;;6249472;23;19916;-79
2022/09/18 06:56:41;;;;;;;;;;;10.70;99.90;;;;;;6224482;23;19923;-79
2022/09/18 06:59:06;;;;;;;;;;;10.70;99.90;;;;;;6221009;23;19943;-80
2022/09/18 07:01:32;;;;;;;;;;;10.70;99.90;;;;;;6195461;23;19962;-80
2022/09/18 07:03:58;;;;;;;;;;;10.70;99.90;;;;;;6220444;23;19926;-80
2022/09/18 07:06:25;;;;;;;;;;;10.70;99.90;;;;;;6220167;23;20342;-80
2022/09/18 07:08:59;;;;;;;;;;;10.70;99.90;;;;;;6220041;23;20246;-81
2022/09/18 07:12:02;;;;;;;;;;;10.70;99.90;;;;;;6219259;23;20250;-82
2022/09/18 07:17:52;;;;;;;;;;;10.80;99.90;;;;;;6177515;23;19916;-84
2022/09/18 07:21:10;;;;;;;;;;;10.70;99.90;;;;;;6175355;23;20281;-78
2022/09/18 07:23:54;;;;;;;;;;;10.60;99.90;;;;;;6153509;23;19982;-79
2022/09/18 07:26:45;;;;;;;;;;;10.80;99.90;;;;;;6104502;23;20315;-76
2022/09/18 07:36:40;;;;;;;;;;;10.80;99.90;;;;;;6008745;23;20380;-78
2022/09/18 08:11:23;;;;;;;;;;;11.50;99.90;;;;;;5964515;23;19921;-76
2022/09/18 08:14:18;;;;;;;;;;;11.40;99.90;;;;;;6180935;23;19962;-77
2022/09/18 08:16:52;;;;;;;;;;;11.40;99.90;;;;;;6220407;23;19922;-77
2022/09/18 08:19:19;;;;;;;;;;;11.30;99.90;;;;;;6170067;23;19915;-77
2022/09/18 08:21:47;;;;;;;;;;;11.30;99.90;;;;;;6218991;23;19965;-78
2022/09/18 08:24:23;;;;;;;;;;;11.30;99.90;;;;;;6215529;23;20242;-77
2022/09/18 08:27:14;;;;;;;;;;;11.20;99.90;;;;;;6213392;23;19923;-79
2022/09/18 08:29:41;;;;;;;;;;;11.30;99.90;;;;;;6194090;23;20382;-78
2022/09/18 08:32:06;;;;;;;;;;;11.30;99.90;;;;;;6220172;23;19915;-77
2022/09/18 08:34:32;;;;;;;;;;;11.40;99.90;;;;;;6219826;23;20290;-75
2022/09/18 08:36:57;;;;;;;;;;;11.50;99.90;;;;;;6220429;23;19915;-75
2022/09/18 08:39:23;;;;;;;;;;;11.40;99.90;;;;;;6244842;23;19962;-76
2022/09/18 08:41:49;;;;;;;;;;;11.60;99.90;;;;;;6219037;23;19926;-75
2022/09/18 08:44:23;;;;;;;;;;;11.60;99.90;;;;;;6246557;22;20357;-77
2022/09/18 08:46:55;;;;;;;;;;;11.60;99.90;;;;;;6245171;23;20034;-75
2022/09/18 08:49:33;;;;;;;;;;;11.60;99.90;;;;;;6219125;23;19927;-75
2022/09/18 08:52:02;;;;;;;;;;;11.60;99.90;;;;;;6219608;23;20223;-76
2022/09/18 08:54:28;;;;;;;;;;;11.60;99.90;;;;;;6219378;23;19920;-77
2022/09/18 08:56:57;;;;;;;;;;;11.60;99.90;;;;;;6245063;23;20374;-75
2022/09/18 08:59:41;;;;;;;;;;;11.60;99.90;;;;;;6246368;23;20258;-77
2022/09/18 09:02:07;;;;;;;;;;;11.60;99.90;;;;;;6244407;23;20281;-76
2022/09/18 09:04:50;;;;;;;;;;;11.60;99.90;;;;;;6213663;23;19916;-76
2022/09/18 09:07:38;;;;;;;;;;;11.60;99.90;;;;;;6213274;23;19916;-76
2022/09/18 09:13:39;;;;;;;;;;;11.60;99.90;;;;;;6272371;22;19926;-75
2022/09/18 09:16:15;;;;;;;;;;;11.60;99.90;;;;;;6269623;22;19915;-77
2022/09/18 09:18:41;;;;;;;;;;;11.60;99.90;;;;;;6277733;22;19930;-74
2022/09/18 09:21:26;;;;;;;;;;;11.50;99.90;;;;;;6277474;22;19903;-80
2022/09/18 09:24:16;;;;;;;;;;;11.40;99.90;;;;;;6275031;22;19923;-77
2022/09/18 09:26:42;;;;;;;;;;;11.30;99.90;;;;;;6248260;22;20042;-76
2022/09/18 09:29:20;;;;;;;;;;;11.40;99.90;;;;;;6222333;22;19919;-77
2022/09/18 09:31:56;;;;;;;;;;;11.40;99.90;;;;;;6224085;22;20008;-79
2022/09/18 09:34:28;;;;;;;;;;;11.50;99.90;;;;;;6248199;22;19965;-77
2022/09/18 09:37:02;;;;;;;;;;;11.50;99.90;;;;;;6247910;22;20041;-77
2022/09/18 09:39:35;;;;;;;;;;;11.60;99.90;;;;;;6248145;22;19921;-77
2022/09/18 09:42:07;;;;;;;;;;;11.60;99.90;;;;;;6247981;22;20317;-75
2022/09/18 09:44:33;;;;;;;;;;;11.60;99.90;;;;;;6247822;22;19920;-76
2022/09/18 09:47:20;;;;;;;;;;;11.70;99.90;;;;;;6248247;22;19926;-73
2022/09/18 09:49:45;;;;;;;;;;;11.70;99.90;;;;;;6248659;22;19947;-73
2022/09/18 09:52:17;;;;;;;;;;;11.60;99.90;;;;;;6250438;22;19916;-74
2022/09/18 09:58:01;;;;;;;;;;;11.70;99.90;;;;;;6250891;22;19923;-72
2022/09/18 10:00:30;;;;;;;;;;;11.70;99.90;;;;;;6250223;22;19990;-77
2022/09/18 10:03:23;;;;;;;;;;;11.70;99.90;;;;;;6250729;22;20337;-74
2022/09/18 10:05:51;;;;;;;;;;;11.70;99.90;;;;;;6278001;22;20459;-73
2022/09/18 10:08:29;;;;;;;;;;;11.80;99.90;;;;;;6250231;22;19915;-74
2022/09/18 10:10:56;;;;;;;;;;;11.90;99.90;;;;;;6277800;22;19920;-73
2022/09/18 10:13:34;;;;;;;;;;;12.00;99.90;;;;;;6250491;22;19994;-77
2022/09/18 10:16:02;;;;;;;;;;;12.00;99.90;;;;;;6275959;22;20781;-75
2022/09/18 10:18:32;;;;;;;;;;;12.00;99.90;;;;;;6250355;22;19915;-77
2022/09/18 10:21:02;;;;;;;;;;;12.10;99.90;;;;;;6225329;22;19922;-76
2022/09/18 10:23:31;;;;;;;;;;;12.20;99.90;;;;;;6249650;22;20258;-78
2022/09/18 10:25:59;;;;;;;;;;;12.30;99.90;;;;;;6249648;22;19950;-76
2022/09/18 10:28:32;;;;;;;;;;;12.40;99.90;;;;;;6224033;22;19926;-78
2022/09/18 10:31:31;;;;;;;;;;;12.50;99.90;;;;;;6223604;22;19919;-78
2022/09/18 10:34:06;;;;;;;;;;;12.60;99.90;;;;;;6276394;22;20311;-83
2022/09/18 10:36:36;;;;;;;;;;;12.60;99.90;;;;;;6248823;22;19915;-74
2022/09/18 10:39:24;;;;;;;;;;;12.70;99.90;;;;;;6248912;22;19939;-79
2022/09/18 10:41:49;;;;;;;;;;;12.80;99.90;;;;;;6224296;22;19915;-78
2022/09/18 10:44:19;;;;;;;;;;;12.80;99.90;;;;;;6249626;22;19942;-75
2022/09/18 10:46:53;;;;;;;;;;;12.80;99.90;;;;;;6249934;22;20334;-74
2022/09/18 10:49:22;;;;;;;;;;;12.90;99.90;;;;;;6249387;22;19943;-75
2022/09/18 10:52:06;;;;;;;;;;;13.00;99.90;;;;;;6249780;22;19927;-74
2022/09/18 10:54:32;;;;;;;;;;;13.00;99.90;;;;;;6249114;22;19955;-73
2022/09/18 10:57:17;;;;;;;;;;;13.10;99.90;;;;;;6249322;22;19922;-73
2022/09/18 10:59:43;;;;;;;;;;;13.20;99.90;;;;;;6248888;22;19919;-75
2022/09/18 11:20:37;;;;;;;;;;;13.60;99.90;;;;;;6303312;22;20229;-76
2022/09/18 11:23:24;;;;;;;;;;;13.70;99.90;;;;;;6280554;22;20348;-74
2022/09/18 11:26:07;;;;;;;;;;;13.60;99.90;;;;;;6256737;22;19922;-76
2022/09/18 11:28:33;;;;;;;;;;;13.70;99.90;;;;;;6255913;22;19915;-77
2022/09/18 11:31:01;;;;;;;;;;;13.70;99.90;;;;;;6281898;22;19926;-74
2022/09/18 11:33:29;;;;;;;;;;;13.60;99.90;;;;;;6281613;22;19990;-77
2022/09/18 12:12:24;;;;;;;;;;;13.00;99.90;;;;;;6307410;22;19919;-76
2022/09/18 12:14:59;;;;;;;;;;;13.20;99.90;;;;;;6278254;22;19919;-85
2022/09/18 12:17:31;;;;;;;;;;;13.20;99.90;;;;;;6282423;22;19985;-77
2022/09/18 12:20:21;;;;;;;;;;;13.20;99.90;;;;;;6281902;22;19915;-77
2022/09/18 12:23:02;;;;;;;;;;;13.30;99.90;;;;;;6257431;22;19922;-81
2022/09/18 12:25:30;;;;;;;;;;;13.30;99.90;;;;;;6256128;22;19926;-78
2022/09/18 12:28:07;;;;;;;;;;;13.40;99.90;;;;;;6256401;22;19919;-75
2022/09/18 12:30:56;;;;;;;;;;;13.40;99.90;;;;;;6281823;22;19964;-78
2022/09/18 12:33:30;;;;;;;;;;;13.40;99.90;;;;;;6255954;22;20376;-79
2022/09/18 12:36:16;;;;;;;;;;;13.30;99.90;;;;;;6255595;22;19926;-80
2022/09/18 12:45:48;;;;;;;;;;;12.90;99.90;;;;;;6181553;23;19924;-74
2022/09/18 12:48:59;;;;;;;;;;;;;;;;;;;;;
2022/09/18 12:55:21;;;;;;;;;;;12.60;99.90;;;;;;6159412;23;20406;-75
2022/09/18 13:04:42;;;;;;;;;;;12.70;99.90;;;;;;6246396;22;19950;-73
2022/09/18 13:14:58;;;;;;;;;;;13.00;99.90;;;;;;6208786;23;20378;-82
2022/09/18 13:17:29;;;;;;;;;;;13.00;99.90;;;;;;6102823;23;20073;-77
2022/09/18 13:20:01;;;;;;;;;;;13.10;99.90;;;;;;6185390;23;20362;-79
2022/09/18 13:22:45;;;;;;;;;;;13.20;99.90;;;;;;6216258;23;20445;-79
2022/09/18 13:25:37;;;;;;;;;;;13.20;99.90;;;;;;6190316;23;19919;-78
2022/09/18 13:28:15;;;;;;;;;;;13.30;99.90;;;;;;6185415;23;19923;-79
2022/09/18 13:30:41;;;;;;;;;;;13.30;99.90;;;;;;6190009;23;20382;-76
2022/09/18 13:36:37;;;;;;;;;;;13.30;99.90;;;;;;6216308;23;19919;-79
2022/09/18 13:39:15;;;;;;;;;;;13.10;99.90;;;;;;6244397;22;19964;-75
2022/09/18 13:41:45;;;;;;;;;;;13.30;99.90;;;;;;6253197;22;19915;-73
2022/09/18 13:44:25;;;;;;;;;;;13.30;99.90;;;;;;6278875;22;20392;-80
2022/09/18 13:47:07;;;;;;;;;;;13.40;99.90;;;;;;6278828;22;19922;-80
2022/09/18 13:49:46;;;;;;;;;;;13.50;99.90;;;;;;6306245;22;19981;-74
2022/09/18 13:52:32;;;;;;;;;;;13.50;99.90;;;;;;6252380;22;19979;-75
2022/09/18 14:09:07;;;;;;;;;;;13.60;99.90;;;;;;6297193;22;19918;-76
2022/09/18 14:15:20;;;;;;;;;;;13.10;99.90;;;;;;6304872;22;20003;-76
2022/09/18 14:21:38;;;;;;;;;;;12.70;99.90;;;;;;6304709;22;20337;-81
2022/09/18 14:25:05;;;;;;;;;;;12.60;99.90;;;;;;6180400;23;19921;-75
2022/09/18 14:27:49;;;;;;;;;;;12.70;99.90;;;;;;6072789;23;19923;-78
2022/09/18 14:30:15;;;;;;;;;;;12.70;99.90;;;;;;6260451;22;19915;-77
2022/09/18 14:33:17;;;;;;;;;;;12.80;99.90;;;;;;6253561;22;19954;-79
2022/09/18 14:35:51;;;;;;;;;;;12.90;99.90;;;;;;6279888;22;19922;-77
2022/09/18 14:38:40;;;;;;;;;;;12.90;99.90;;;;;;6259814;22;19899;-76
2022/09/18 14:41:19;;;;;;;;;;;;;;;;;;;;;
2022/09/18 14:43:48;;;;;;;;;;;13.10;99.90;;;;;;6308840;22;19925;-73
2022/09/18 14:46:18;;;;;;;;;;;13.10;99.90;;;;;;6309128;22;19910;-72
2022/09/18 14:48:46;;;;;;;;;;;13.10;99.90;;;;;;6293393;22;19941;-75
2022/09/18 14:51:17;;;;;;;;;;;13.20;99.90;;;;;;6253903;22;20325;-75
2022/09/18 14:53:44;;;;;;;;;;;13.20;99.90;;;;;;6280076;22;19919;-71
2022/09/18 14:59:15;;;;;;;;;;;13.20;99.90;;;;;;6279826;22;19923;-74
2022/09/18 15:01:50;;;;;;;;;;;13.20;99.90;;;;;;6279692;22;19918;-75
2022/09/18 15:04:17;;;;;;;;;;;13.10;99.90;;;;;;6279585;22;19950;-75
2022/09/18 15:06:47;;;;;;;;;;;13.20;99.90;;;;;;6253189;22;19950;-73
2022/09/18 15:09:14;;;;;;;;;;;13.20;99.90;;;;;;6253812;22;19929;-74
2022/09/18 15:11:46;;;;;;;;;;;13.30;99.90;;;;;;6277792;22;20044;-76
2022/09/18 15:14:25;;;;;;;;;;;13.40;99.90;;;;;;6253285;22;19919;-72
2022/09/18 15:16:55;;;;;;;;;;;13.40;99.90;;;;;;6279244;22;19926;-73
2022/09/18 15:22:58;;;;;;;;;;;13.40;99.90;;;;;;6132351;23;19967;-80
2022/09/18 15:25:31;;;;;;;;;;;13.40;99.90;;;;;;6156192;23;19920;-75
2022/09/18 15:28:29;;;;;;;;;;;13.70;99.90;;;;;;6240828;22;19919;-81
2022/09/18 15:31:07;;;;;;;;;;;13.80;99.90;;;;;;6127612;23;19917;-77
2022/09/18 15:33:49;;;;;;;;;;;13.90;99.90;;;;;;6137055;22;19915;-79
2022/09/18 15:36:26;;;;;;;;;;;13.90;99.90;;;;;;6254901;22;19922;-76
2022/09/18 15:38:52;;;;;;;;;;;13.90;99.90;;;;;;6279181;22;19915;-77
2022/09/18 15:41:27;;;;;;;;;;;13.80;99.90;;;;;;6253448;22;19918;-75
2022/09/18 15:43:53;;;;;;;;;;;13.60;99.90;;;;;;6278757;22;20353;-77
2022/09/18 15:46:24;;;;;;;;;;;13.50;99.90;;;;;;6252811;22;19915;-78
2022/09/18 15:48:50;;;;;;;;;;;13.40;99.90;;;;;;6279357;22;19919;-76
2022/09/18 15:51:16;;;;;;;;;;;13.40;99.90;;;;;;6252978;22;19965;-73
2022/09/18 15:54:14;;;;;;;;;;;13.30;99.90;;;;;;6253298;22;19918;-78
2022/09/18 15:56:53;;;;;;;;;;;13.30;99.90;;;;;;6171130;22;19923;-77
2022/09/18 15:59:30;;;;;;;;;;;13.30;99.90;;;;;;6252621;22;19922;-76
2022/09/18 16:02:06;;;;;;;;;;;13.40;99.90;;;;;;6278214;22;19919;-78
2022/09/18 16:05:11;;;;;;;;;;;13.40;99.90;;;;;;6255942;22;19919;-79
2022/09/18 16:07:52;;;;;;;;;;;13.60;99.90;;;;;;6252040;22;20377;-76
2022/09/18 16:10:40;;;;;;;;;;;13.50;99.90;;;;;;6279003;22;19933;-72
2022/09/18 16:13:09;;;;;;;;;;;13.70;99.90;;;;;;6259016;22;19915;-75
2022/09/18 16:15:35;;;;;;;;;;;13.70;99.90;;;;;;6278624;22;19998;-75
2022/09/18 16:18:02;;;;;;;;;;;13.70;99.90;;;;;;6253415;22;19954;-77
2022/09/18 16:20:46;;;;;;;;;;;13.40;99.90;;;;;;6253202;22;19918;-74
2022/09/18 16:23:27;;;;;;;;;;;13.40;99.90;;;;;;6278472;22;20288;-74
2022/09/18 16:26:01;;;;;;;;;;;13.30;99.90;;;;;;6253142;22;19919;-74
2022/09/18 16:28:41;;;;;;;;;;;13.20;99.90;;;;;;6253084;22;19919;-77
2022/09/18 16:42:49;;;;;;;;;;;13.00;99.90;;;;;;6300878;22;19919;-82
2022/09/18 16:45:15;;;;;;;;;;;13.10;99.90;;;;;;6210426;23;19927;-77
2022/09/18 16:54:29;;;;;;;;;;;12.90;99.90;;;;;;6211717;22;19938;-78
2022/09/18 17:36:48;;;;;;;;;;;12.20;99.90;;;;;;6304029;22;19923;-75
2022/09/18 17:39:16;;;;;;;;;;;12.10;99.90;;;;;;6278924;22;19929;-79
2022/09/18 17:42:21;;;;;;;;;;;12.10;99.90;;;;;;6253622;22;19990;-80
2022/09/18 17:44:52;;;;;;;;;;;12.10;99.90;;;;;;6220363;22;19915;-80
2022/09/18 17:47:19;;;;;;;;;;;12.00;99.90;;;;;;6253197;22;19937;-78
2022/09/18 17:53:00;;;;;;;;;;;12.10;99.90;;;;;;6279684;22;19915;-78
2022/09/18 17:55:34;;;;;;;;;;;12.20;99.90;;;;;;6253707;22;19914;-80
2022/09/18 17:58:03;;;;;;;;;;;12.20;99.90;;;;;;6253954;22;19915;-77
2022/09/18 18:00:34;;;;;;;;;;;12.20;99.90;;;;;;6253814;22;19969;-79
2022/09/18 18:03:05;;;;;;;;;;;12.40;99.90;;;;;;6253783;22;19919;-78
2022/09/18 18:09:47;;;;;;;;;;;12.10;99.90;;;;;;6212070;23;19927;-81
2022/09/18 18:12:31;;;;;;;;;;;12.00;99.90;;;;;;6279258;22;19921;-85
2022/09/18 18:14:56;;;;;;;;;;;12.00;99.90;;;;;;6279970;22;19922;-77
2022/09/18 18:17:23;;;;;;;;;;;12.00;99.90;;;;;;6254088;22;19914;-78
2022/09/18 18:19:57;;;;;;;;;;;12.00;99.90;;;;;;6255638;22;19932;-78
2022/09/18 18:22:25;;;;;;;;;;;12.00;99.90;;;;;;6280754;22;19926;-77
2022/09/18 18:25:06;;;;;;;;;;;12.00;99.90;;;;;;6281745;22;19957;-79
2022/09/18 19:40:25;;;;;;;;;;;12.50;99.90;;;;;;6297816;22;19930;-80
2022/09/18 20:21:51;;;;;;;;;;;12.50;99.90;;;;;;6279035;22;19930;-79
2022/09/18 20:24:21;;;;;;;;;;;12.40;99.90;;;;;;6253015;22;20004;-78
2022/09/18 20:30:27;;;;;;;;;;;12.30;99.90;;;;;;6307855;22;19913;-82
2022/09/18 20:33:15;;;;;;;;;;;12.60;99.90;;;;;;6253560;22;19915;-84
